createdAt,value
2022-10-29T00:02:01.056Z,5.68
2022-10-29T00:04:27.423Z,3.92
2022-10-29T00:06:53.758Z,7.03
2022-10-29T00:09:20.086Z,6.27
2022-10-29T00:11:46.430Z,5.90
2022-10-29T00:14:12.828Z,8.40
2022-10-29T00:16:40.256Z,10.80
2022-10-29T00:19:07.334Z,8.95
2022-10-29T00:21:34.499Z,14.53
2022-10-29T00:24:00.988Z,12.25
2022-10-29T00:26:30.040Z,8.45
2022-10-29T00:28:56.838Z,7.82
2022-10-29T00:31:24.351Z,7.97
2022-10-29T00:33:52.995Z,3.97
2022-10-29T00:36:26.161Z,10.18
2022-10-29T00:38:52.502Z,8.88
2022-10-29T00:41:21.862Z,16.70
2022-10-29T00:43:51.140Z,10.68
2022-10-29T00:47:07.230Z,8.57
2022-10-29T00:49:35.015Z,9.25
2022-10-29T00:52:03.982Z,11.63
2022-10-29T00:54:33.977Z,6.28
2022-10-29T00:57:07.326Z,6.25
2022-10-29T00:59:33.743Z,7.57
2022-10-29T01:02:00.232Z,9.88
2022-10-29T01:04:27.168Z,11.30
2022-10-29T01:06:55.659Z,14.80
2022-10-29T01:09:21.969Z,8.38
2022-10-29T01:12:22.005Z,9.90
2022-10-29T01:15:07.785Z,12.02
2022-10-29T01:18:01.382Z,5.82
2022-10-29T01:20:42.814Z,9.18
2022-10-29T01:23:42.189Z,12.15
2022-10-29T01:26:29.179Z,6.97
2022-10-29T01:29:28.355Z,7.30
2022-10-29T01:32:11.081Z,12.30
2022-10-29T01:34:51.210Z,7.88
2022-10-29T01:37:23.432Z,9.02
2022-10-29T01:39:56.515Z,9.00
2022-10-29T01:42:38.623Z,8.52
2022-10-29T01:45:11.869Z,7.97
2022-10-29T01:47:58.255Z,10.45
2022-10-29T01:50:25.670Z,9.57
2022-10-29T01:52:53.499Z,18.40
2022-10-29T01:55:23.162Z,14.77
2022-10-29T01:57:49.503Z,18.95
2022-10-29T02:00:19.669Z,12.63
2022-10-29T02:03:09.762Z,20.48
2022-10-29T02:05:58.182Z,22.33
2022-10-29T02:09:00.875Z,15.50
2022-10-29T02:11:49.667Z,11.68
2022-10-29T02:14:23.139Z,9.07
2022-10-29T02:16:49.823Z,10.50
2022-10-29T02:19:16.280Z,9.90
2022-10-29T02:21:44.189Z,8.88
2022-10-29T02:24:11.299Z,22.55
2022-10-29T02:26:37.701Z,19.92
2022-10-29T02:29:04.135Z,16.85
2022-10-29T02:31:30.514Z,32.13
2022-10-29T02:33:57.055Z,22.00
2022-10-29T02:36:23.584Z,14.50
2022-10-29T02:38:50.018Z,17.00
2022-10-29T02:41:16.339Z,27.30
2022-10-29T02:43:42.676Z,23.40
2022-10-29T02:46:18.686Z,19.27
2022-10-29T02:48:45.337Z,19.15
2022-10-29T02:51:11.734Z,15.20
2022-10-29T02:53:38.757Z,11.73
2022-10-29T02:56:06.363Z,20.73
2022-10-29T02:58:32.830Z,18.05
2022-10-29T03:00:59.358Z,21.75
2022-10-29T03:03:26.187Z,17.90
2022-10-29T03:05:52.578Z,10.48
2022-10-29T03:08:19.294Z,13.10
2022-10-29T03:10:45.743Z,19.88
2022-10-29T03:13:12.399Z,10.07
2022-10-29T03:15:38.792Z,15.32
2022-10-29T03:18:05.528Z,15.65
2022-10-29T03:20:32.009Z,14.43
2022-10-29T03:22:58.399Z,16.17
2022-10-29T03:25:24.762Z,11.00
2022-10-29T03:27:51.175Z,15.68
2022-10-29T03:30:17.935Z,32.70
2022-10-29T03:32:45.886Z,17.77
2022-10-29T03:35:14.858Z,21.73
2022-10-29T03:37:41.325Z,19.73
2022-10-29T03:40:09.546Z,34.80
2022-10-29T03:42:37.535Z,19.63
2022-10-29T03:45:04.071Z,31.73
2022-10-29T03:47:30.406Z,20.60
2022-10-29T03:49:56.819Z,21.98
2022-10-29T03:52:23.167Z,21.70
2022-10-29T03:54:49.486Z,25.52
2022-10-29T03:57:15.804Z,21.87
2022-10-29T03:59:42.125Z,20.42
2022-10-29T04:02:09.223Z,20.80
2022-10-29T04:04:35.633Z,13.82
2022-10-29T04:07:02.009Z,12.57
2022-10-29T04:09:28.399Z,40.17
2022-10-29T04:11:54.743Z,14.43
2022-10-29T04:14:21.051Z,19.58
2022-10-29T04:16:47.568Z,13.95
2022-10-29T04:19:13.881Z,9.18
2022-10-29T04:29:59.246Z,9.68
2022-10-29T04:32:25.651Z,6.95
2022-10-29T04:34:51.953Z,7.87
2022-10-29T04:37:18.305Z,7.00
2022-10-29T04:39:44.628Z,7.25
2022-10-29T04:42:10.954Z,11.52
2022-10-29T04:44:37.842Z,6.95
2022-10-29T04:47:04.264Z,6.63
2022-10-29T04:49:30.640Z,6.35
2022-10-29T04:51:57.103Z,7.05
2022-10-29T04:54:23.444Z,10.55
2022-10-29T04:56:49.794Z,10.40
2022-10-29T04:59:16.285Z,7.73
2022-10-29T05:01:42.911Z,6.88
2022-10-29T05:04:09.445Z,7.53
2022-10-29T05:06:35.923Z,8.30
2022-10-29T05:09:02.265Z,8.85
2022-10-29T05:11:28.676Z,6.23
2022-10-29T05:13:55.029Z,7.15
2022-10-29T05:16:21.584Z,9.65
2022-10-29T05:18:48.032Z,6.95
2022-10-29T05:21:15.046Z,7.65
2022-10-29T05:23:41.479Z,8.53
2022-10-29T05:26:07.886Z,5.25
2022-10-29T05:28:34.211Z,6.80
2022-10-29T05:31:02.400Z,7.75
2022-10-29T05:33:28.800Z,6.75
2022-10-29T05:35:55.115Z,7.80
2022-10-29T05:38:21.491Z,5.55
2022-10-29T05:40:47.825Z,6.57
2022-10-29T05:43:15.769Z,6.20
2022-10-29T05:45:42.504Z,9.55
2022-10-29T05:50:41.776Z,7.03
2022-10-29T05:53:11.408Z,11.90
2022-10-29T05:55:38.707Z,10.07
2022-10-29T05:58:07.906Z,9.30
2022-10-29T06:00:37.120Z,7.27
2022-10-29T06:03:04.019Z,6.50
2022-10-29T06:05:30.450Z,6.70
2022-10-29T06:07:58.463Z,7.03
2022-10-29T06:10:26.645Z,8.40
2022-10-29T06:12:52.997Z,7.40
2022-10-29T06:15:19.597Z,8.38
2022-10-29T06:17:46.737Z,6.30
2022-10-29T06:20:18.288Z,7.68
2022-10-29T06:22:44.710Z,7.55
2022-10-29T06:25:11.092Z,7.57
2022-10-29T06:27:37.695Z,8.35
2022-10-29T06:30:05.684Z,7.50
2022-10-29T06:32:32.341Z,8.85
2022-10-29T06:34:58.873Z,8.25
2022-10-29T06:37:25.214Z,10.53
2022-10-29T06:39:51.572Z,8.70
2022-10-29T06:42:17.895Z,7.72
2022-10-29T06:44:44.199Z,9.45
2022-10-29T06:47:10.608Z,8.32
2022-10-29T06:49:36.913Z,8.87
2022-10-29T06:52:03.436Z,10.45
2022-10-29T06:54:29.784Z,9.85
2022-10-29T06:56:56.181Z,11.80
2022-10-29T06:59:24.326Z,10.63
2022-10-29T07:01:50.802Z,10.23
2022-10-29T07:04:18.381Z,11.02
2022-10-29T07:06:44.901Z,12.02
2022-10-29T07:09:11.424Z,13.23
2022-10-29T07:11:37.766Z,9.00
2022-10-29T07:14:05.879Z,9.67
2022-10-29T07:16:32.245Z,10.85
2022-10-29T07:18:58.683Z,9.27
2022-10-29T07:21:25.032Z,10.73
2022-10-29T07:23:51.591Z,7.75
2022-10-29T07:26:17.957Z,7.63
2022-10-29T07:28:44.294Z,11.23
2022-10-29T07:31:11.188Z,9.00
2022-10-29T07:33:37.508Z,10.73
2022-10-29T07:36:04.046Z,14.80
2022-10-29T07:38:30.421Z,11.47
2022-10-29T07:40:56.840Z,13.30
2022-10-29T07:43:23.538Z,22.55
2022-10-29T07:45:51.024Z,19.00
2022-10-29T07:48:19.212Z,19.52
2022-10-29T07:50:45.927Z,21.13
2022-10-29T07:53:12.310Z,21.83
2022-10-29T07:55:38.695Z,20.25
2022-10-29T07:58:07.789Z,21.92
2022-10-29T08:00:37.149Z,22.98
2022-10-29T08:03:04.429Z,21.40
2022-10-29T08:05:31.003Z,25.98
2022-10-29T08:07:58.387Z,23.67
2022-10-29T08:10:25.477Z,20.42
2022-10-29T08:13:00.775Z,20.40
2022-10-29T08:15:29.259Z,19.17
2022-10-29T08:17:56.759Z,19.92
2022-10-29T08:20:25.450Z,18.52
2022-10-29T08:22:51.804Z,22.67
2022-10-29T08:25:18.765Z,26.45
2022-10-29T08:27:45.412Z,21.27
2022-10-29T08:30:14.314Z,23.30
2022-10-29T08:32:46.504Z,20.42
2022-10-29T08:35:13.622Z,20.00
2022-10-29T08:37:44.052Z,18.45
2022-10-29T08:40:19.851Z,21.57
2022-10-29T08:43:15.265Z,16.83
2022-10-29T08:45:48.245Z,17.48
2022-10-29T08:48:46.322Z,22.13
2022-10-29T08:51:23.516Z,18.88
2022-10-29T08:54:17.041Z,15.43
2022-10-29T08:56:44.238Z,15.88
2022-10-29T08:59:14.887Z,19.17
2022-10-29T09:01:41.855Z,19.08
2022-10-29T09:04:44.212Z,14.73
2022-10-29T09:07:28.528Z,18.30
2022-10-29T09:10:00.817Z,14.95
2022-10-29T09:12:44.471Z,17.90
2022-10-29T09:15:19.835Z,16.67
2022-10-29T09:18:10.090Z,18.48
2022-10-29T09:21:00.856Z,19.93
2022-10-29T09:23:49.020Z,17.95
2022-10-29T09:26:40.830Z,15.60
2022-10-29T09:29:44.274Z,16.73
2022-10-29T09:32:19.950Z,15.95
2022-10-29T09:34:52.907Z,15.67
2022-10-29T09:37:24.816Z,16.35
2022-10-29T09:39:53.066Z,19.20
2022-10-29T09:42:47.351Z,20.70
2022-10-29T09:45:18.154Z,16.92
2022-10-29T09:48:07.678Z,15.37
2022-10-29T09:50:52.212Z,17.63
2022-10-29T09:53:18.679Z,18.85
2022-10-29T09:55:53.352Z,18.92
2022-10-29T09:58:23.229Z,22.00
2022-10-29T10:00:51.250Z,18.23
2022-10-29T10:03:27.056Z,17.80
2022-10-29T10:06:08.337Z,23.15
2022-10-29T10:08:55.535Z,15.80
2022-10-29T10:11:23.132Z,16.55
2022-10-29T10:13:59.857Z,15.43
2022-10-29T10:16:29.849Z,16.13
2022-10-29T10:18:56.352Z,16.25
2022-10-29T10:21:28.948Z,18.23
2022-10-29T10:23:57.568Z,17.13
2022-10-29T10:26:39.783Z,19.10
2022-10-29T10:29:13.773Z,14.68
2022-10-29T10:31:47.654Z,17.25
2022-10-29T10:34:18.990Z,18.05
2022-10-29T10:36:55.884Z,16.60
2022-10-29T10:39:42.119Z,17.23
2022-10-29T10:42:25.744Z,18.02
2022-10-29T10:44:54.407Z,15.40
2022-10-29T10:47:24.278Z,17.50
2022-10-29T10:49:50.836Z,16.17
2022-10-29T10:52:25.176Z,15.23
2022-10-29T10:55:24.073Z,17.45
2022-10-29T10:58:00.102Z,15.77
2022-10-29T11:00:30.723Z,18.17
2022-10-29T11:03:13.376Z,15.70
2022-10-29T11:05:58.443Z,15.90
2022-10-29T11:08:34.778Z,12.57
2022-10-29T11:11:08.250Z,14.38
2022-10-29T11:13:34.683Z,13.75
2022-10-29T11:16:13.282Z,14.70
2022-10-29T11:18:52.079Z,15.40
2022-10-29T11:21:25.288Z,14.25
2022-10-29T11:24:00.790Z,13.88
2022-10-29T11:26:35.083Z,12.23
2022-10-29T11:29:31.133Z,14.65
2022-10-29T11:32:30.139Z,16.33
2022-10-29T11:35:05.078Z,13.82
2022-10-29T11:37:37.461Z,13.93
2022-10-29T11:40:24.011Z,14.95
2022-10-29T11:42:50.513Z,15.40
2022-10-29T11:45:36.060Z,11.93
2022-10-29T11:48:08.815Z,13.52
2022-10-29T11:51:03.450Z,12.73
2022-10-29T11:53:38.938Z,13.88
2022-10-29T11:56:42.463Z,17.73
2022-10-29T11:59:34.529Z,11.93
2022-10-29T12:02:09.942Z,12.20
2022-10-29T12:04:57.520Z,14.10
2022-10-29T12:07:45.170Z,11.63
2022-10-29T12:10:42.702Z,11.82
2022-10-29T12:13:22.383Z,13.47
2022-10-29T12:16:03.591Z,14.88
2022-10-29T12:18:42.774Z,11.65
2022-10-29T12:21:24.719Z,11.63
2022-10-29T12:24:02.961Z,11.00
2022-10-29T12:26:44.442Z,18.30
2022-10-29T12:29:19.988Z,13.70
2022-10-29T12:31:52.268Z,14.70
2022-10-29T12:34:41.904Z,15.15
2022-10-29T12:37:23.181Z,9.60
2022-10-29T12:39:55.674Z,17.93
2022-10-29T12:42:25.503Z,20.40
2022-10-29T12:45:29.814Z,14.52
2022-10-29T12:48:19.317Z,14.05
2022-10-29T12:51:13.124Z,15.18
2022-10-29T12:54:14.443Z,15.47
2022-10-29T12:56:42.948Z,11.15
2022-10-29T12:59:25.398Z,13.55
2022-10-29T13:04:38.552Z,12.98
2022-10-29T13:07:23.313Z,10.73
2022-10-29T13:10:22.213Z,14.80
2022-10-29T13:13:20.042Z,15.50
2022-10-29T13:15:59.811Z,14.40
2022-10-29T13:18:44.752Z,12.93
2022-10-29T13:21:11.183Z,13.17
2022-10-29T13:23:37.786Z,15.30
2022-10-29T13:26:05.963Z,15.27
2022-10-29T13:28:35.252Z,14.68
2022-10-29T13:31:01.493Z,13.93
2022-10-29T13:33:27.921Z,14.10
2022-10-29T13:36:06.523Z,14.23
2022-10-29T13:39:04.341Z,16.23
2022-10-29T13:41:44.537Z,16.02
2022-10-29T13:44:14.595Z,14.85
2022-10-29T13:46:54.096Z,16.47
2022-10-29T13:49:26.961Z,19.95
2022-10-29T13:51:58.005Z,14.43
2022-10-29T13:54:34.622Z,15.63
2022-10-29T13:57:04.446Z,15.23
2022-10-29T13:59:48.521Z,14.70
2022-10-29T14:02:25.704Z,18.60
2022-10-29T14:04:58.551Z,15.30
2022-10-29T14:07:35.421Z,17.73
2022-10-29T14:10:08.299Z,16.60
2022-10-29T14:12:36.214Z,19.50
2022-10-29T14:15:09.914Z,13.93
2022-10-29T14:17:36.310Z,14.68
2022-10-29T14:20:03.435Z,14.88
2022-10-29T14:22:37.015Z,14.48
2022-10-29T14:25:27.241Z,13.10
2022-10-29T14:28:16.212Z,12.57
2022-10-29T14:30:43.359Z,14.75
2022-10-29T14:33:24.960Z,20.27
2022-10-29T14:35:55.942Z,11.98
2022-10-29T14:38:28.339Z,14.23
2022-10-29T14:40:54.747Z,14.27
2022-10-29T14:43:27.624Z,15.23
2022-10-29T14:45:56.991Z,15.10
2022-10-29T14:48:23.390Z,16.08
2022-10-29T14:50:51.295Z,16.20
2022-10-29T14:53:40.707Z,13.63
2022-10-29T14:56:11.103Z,17.35
2022-10-29T14:58:38.332Z,15.25
2022-10-29T15:01:12.126Z,17.20
2022-10-29T15:03:38.685Z,19.23
2022-10-29T15:06:16.193Z,16.20
2022-10-29T15:08:45.242Z,16.67
2022-10-29T15:11:40.439Z,15.18
2022-10-29T15:16:58.086Z,16.40
2022-10-29T15:19:24.785Z,15.75
2022-10-29T15:21:51.279Z,20.80
2022-10-29T15:24:21.464Z,14.82
2022-10-29T15:26:50.729Z,13.77
2022-10-29T15:29:30.616Z,13.63
2022-10-29T15:32:00.103Z,18.63
2022-10-29T15:34:32.277Z,14.52
2022-10-29T15:37:33.558Z,17.77
2022-10-29T15:40:06.849Z,14.05
2022-10-29T15:42:35.218Z,13.97
2022-10-29T15:45:07.511Z,18.63
2022-10-29T15:47:35.700Z,12.10
2022-10-29T15:50:02.497Z,17.35
2022-10-29T15:52:37.488Z,16.27
2022-10-29T15:55:14.959Z,21.43
2022-10-29T15:57:43.166Z,15.18
2022-10-29T16:00:11.506Z,17.90
2022-10-29T16:02:38.044Z,15.98
2022-10-29T16:05:04.852Z,16.95
2022-10-29T16:07:31.385Z,16.17
2022-10-29T16:09:59.347Z,17.85
2022-10-29T16:12:26.112Z,16.02
2022-10-29T16:14:52.517Z,16.60
2022-10-29T16:17:21.080Z,18.08
2022-10-29T16:19:47.654Z,11.73
2022-10-29T16:22:23.676Z,16.20
2022-10-29T16:24:50.078Z,16.80
2022-10-29T16:27:18.330Z,14.90
2022-10-29T16:29:46.918Z,13.82
2022-10-29T16:32:18.482Z,14.90
2022-10-29T16:34:44.854Z,12.80
2022-10-29T16:37:16.524Z,17.20
2022-10-29T16:39:43.100Z,15.52
2022-10-29T16:42:27.643Z,14.57
2022-10-29T16:44:53.957Z,12.67
2022-10-29T16:47:20.301Z,11.43
2022-10-29T16:49:46.615Z,14.75
2022-10-29T16:52:17.395Z,11.30
2022-10-29T16:54:47.396Z,11.73
2022-10-29T16:57:13.758Z,13.93
2022-10-29T16:59:40.145Z,16.83
2022-10-29T17:02:06.738Z,15.57
2022-10-29T17:04:33.138Z,10.95
2022-10-29T17:06:59.483Z,10.27
2022-10-29T17:09:25.914Z,16.50
2022-10-29T17:11:52.315Z,13.15
2022-10-29T17:14:18.630Z,15.00
2022-10-29T17:16:44.955Z,16.45
2022-10-29T17:19:11.531Z,14.32
2022-10-29T17:21:37.826Z,16.60
2022-10-29T17:24:07.713Z,16.58
2022-10-29T17:26:34.530Z,16.00
2022-10-29T17:29:00.867Z,17.80
2022-10-29T17:31:27.365Z,18.67
2022-10-29T17:33:53.705Z,14.37
2022-10-29T17:36:20.097Z,15.20
2022-10-29T17:38:46.666Z,12.65
2022-10-29T17:41:13.057Z,15.07
2022-10-29T17:43:39.459Z,17.20
2022-10-29T17:46:06.004Z,15.17
2022-10-29T17:48:32.499Z,17.38
2022-10-29T17:51:01.868Z,15.98
2022-10-29T17:53:29.862Z,16.98
2022-10-29T17:56:00.315Z,16.40
2022-10-29T17:58:27.298Z,16.20
2022-10-29T18:00:54.034Z,13.88
2022-10-29T18:03:24.316Z,16.27
2022-10-29T18:05:50.686Z,13.07
2022-10-29T18:08:17.220Z,17.95
2022-10-29T18:10:43.526Z,15.37
2022-10-29T18:13:09.851Z,15.45
2022-10-29T18:15:36.175Z,15.88
2022-10-29T18:18:02.524Z,14.50
2022-10-29T18:20:28.855Z,20.15
2022-10-29T18:22:56.254Z,16.43
2022-10-29T18:25:22.784Z,15.50
2022-10-29T18:27:52.187Z,13.85
2022-10-29T18:30:22.667Z,18.92
2022-10-29T18:32:49.286Z,15.43
2022-10-29T18:35:15.992Z,19.23
2022-10-29T18:37:42.350Z,20.55
2022-10-29T18:40:09.295Z,17.67
2022-10-29T18:42:35.627Z,19.65
2022-10-29T18:45:01.980Z,18.83
2022-10-29T18:47:28.362Z,14.40
2022-10-29T18:49:54.729Z,15.60
2022-10-29T18:52:21.052Z,17.15
2022-10-29T18:54:47.583Z,14.23
2022-10-29T18:57:16.849Z,13.75
2022-10-29T18:59:46.076Z,18.80
2022-10-29T19:02:12.518Z,17.63
2022-10-29T19:04:38.966Z,16.35
2022-10-29T19:07:05.364Z,17.83
2022-10-29T19:09:31.751Z,19.38
2022-10-29T19:11:59.648Z,15.17
2022-10-29T19:14:26.290Z,15.82
2022-10-29T19:16:52.638Z,18.55
2022-10-29T19:19:21.295Z,18.92
2022-10-29T19:21:50.504Z,11.18
2022-10-29T19:24:17.014Z,15.37
2022-10-29T19:26:44.026Z,16.75
2022-10-29T19:29:11.298Z,12.88
2022-10-29T19:31:37.689Z,16.15
2022-10-29T19:34:06.489Z,18.55
2022-10-29T19:36:34.339Z,18.27
2022-10-29T19:39:00.901Z,20.65
2022-10-29T19:41:27.639Z,15.98
2022-10-29T19:43:53.963Z,18.02
2022-10-29T19:46:24.538Z,18.48
2022-10-29T19:48:53.086Z,15.47
2022-10-29T19:51:20.353Z,16.13
2022-10-29T19:53:47.942Z,16.98
2022-10-29T19:56:15.930Z,13.77
2022-10-29T19:58:43.234Z,16.30
2022-10-29T20:01:16.071Z,18.07
2022-10-29T20:03:43.051Z,18.38
2022-10-29T20:06:09.665Z,16.90
2022-10-29T20:08:36.849Z,16.73
2022-10-29T20:11:03.625Z,14.23
2022-10-29T20:13:30.097Z,18.97
2022-10-29T20:15:56.829Z,13.98
2022-10-29T20:18:23.300Z,15.32
2022-10-29T20:20:56.634Z,14.90
2022-10-29T20:23:25.427Z,16.40
2022-10-29T20:25:51.821Z,17.33
2022-10-29T20:28:18.156Z,16.65
2022-10-29T20:30:44.533Z,17.38
2022-10-29T20:33:10.886Z,17.10
2022-10-29T20:35:37.260Z,17.42
2022-10-29T20:38:04.304Z,19.50
2022-10-29T20:40:30.675Z,18.50
2022-10-29T20:42:57.047Z,14.63
2022-10-29T20:45:23.416Z,14.02
2022-10-29T20:47:49.787Z,18.85
2022-10-29T20:50:16.286Z,21.77
2022-10-29T20:52:48.156Z,17.75
2022-10-29T20:55:15.115Z,13.73
2022-10-29T20:57:41.437Z,16.25
2022-10-29T21:00:08.427Z,13.57
2022-10-29T21:02:34.811Z,16.97
2022-10-29T21:05:01.252Z,13.20
2022-10-29T21:07:27.592Z,21.80
2022-10-29T21:09:54.010Z,19.50
2022-10-29T21:12:20.372Z,14.00
2022-10-29T21:14:46.762Z,15.67
2022-10-29T21:17:13.325Z,14.77
2022-10-29T21:19:39.857Z,13.98
2022-10-29T21:22:06.238Z,17.35
2022-10-29T21:24:32.579Z,11.93
2022-10-29T21:26:58.915Z,14.70
2022-10-29T21:29:25.294Z,16.60
2022-10-29T21:31:51.600Z,15.95
2022-10-29T21:34:17.938Z,18.42
2022-10-29T21:36:44.329Z,14.80
2022-10-29T21:39:10.730Z,19.07
2022-10-29T21:41:37.036Z,19.40
2022-10-29T21:44:03.608Z,14.65
2022-10-29T21:46:29.933Z,15.48
2022-10-29T21:48:56.618Z,13.88
2022-10-29T21:51:23.053Z,14.17
2022-10-29T21:53:49.386Z,15.50
2022-10-29T21:56:15.877Z,15.18
2022-10-29T21:58:42.951Z,14.60
2022-10-29T22:01:12.042Z,14.77
2022-10-29T22:03:41.273Z,12.27
2022-10-29T22:06:19.873Z,14.13
2022-10-29T22:08:47.223Z,18.15
2022-10-29T22:11:14.836Z,13.80
2022-10-29T22:13:41.309Z,18.25
2022-10-29T22:16:10.713Z,14.30
2022-10-29T22:18:37.679Z,12.07
2022-10-29T22:21:24.343Z,14.85
2022-10-29T22:23:57.969Z,14.20
2022-10-29T22:26:26.806Z,15.88
2022-10-29T22:28:53.406Z,11.47
2022-10-29T22:31:21.535Z,14.13
2022-10-29T22:33:48.279Z,12.98
2022-10-29T22:36:20.411Z,11.30
2022-10-29T22:38:46.837Z,13.27
2022-10-29T22:41:15.818Z,11.27
2022-10-29T22:43:43.142Z,13.48
2022-10-29T22:46:10.745Z,12.43
2022-10-29T22:48:37.144Z,13.98
2022-10-29T22:51:11.491Z,11.95
2022-10-29T22:53:37.916Z,15.97
2022-10-29T22:56:05.024Z,14.10
2022-10-29T22:58:31.451Z,11.40
2022-10-29T23:01:08.852Z,13.20
2022-10-29T23:03:35.643Z,15.10
2022-10-29T23:06:04.248Z,14.10
2022-10-29T23:08:31.275Z,13.07
2022-10-29T23:10:58.318Z,11.02
2022-10-29T23:13:24.702Z,21.13
2022-10-29T23:15:52.735Z,12.23
2022-10-29T23:18:19.276Z,11.43
2022-10-29T23:20:45.762Z,17.88
2022-10-29T23:23:13.120Z,11.70
2022-10-29T23:25:41.451Z,13.98
2022-10-29T23:28:08.793Z,17.55
2022-10-29T23:30:35.364Z,21.67
2022-10-29T23:33:01.807Z,20.10
2022-10-29T23:35:28.118Z,16.27
2022-10-29T23:37:54.766Z,14.68
2022-10-29T23:40:21.377Z,13.20
2022-10-29T23:42:47.707Z,14.23
2022-10-29T23:45:16.854Z,13.88
2022-10-29T23:47:43.251Z,14.65
2022-10-29T23:50:09.809Z,12.52
2022-10-29T23:52:36.179Z,16.00
2022-10-29T23:55:02.517Z,13.00
2022-10-29T23:57:28.915Z,10.15
2022-10-29T23:59:55.238Z,14.00
